LiveATC.Net - Listen to live air traffic control over the Internet! Contact for advertising information

ICAO: MMCL  IATA: CUL   Airport: Federal de Bachigualato International Airport
City: Culiacan
Country: Mexico   Continent: North America
MMCL METAR Weather: MMCL 070941Z 00000KT 10SM SKC 26/23 A2989 RMK ISOL CI RTS
MMCL Flight Activity (FlightAware)
MMCL Twr/App/Center
Feed Status: DOWN
Last heard on: 2015-10-07 03:13:03 (0 days 9 hours 14 minutes ago)
MMCL Twr/App/Center Audio Archives
Culiacan Approach119.750
Culiacan Tower118.500
Mazatlan Center (Sector 3 South)128.000
Mazatlan Center (Sector 4)124.400
Mazatlan Center (Sector 5)124.200


Unauthorized use prohibited. See Terms of Service

Find LiveATC Audio Streams

Airport/ARTCC Code

(e.g., 124.400, 128.75)
Site-wide search

Browse LiveATC Feeds
LiveATC Coverage Map
Top 50 LiveATC Feeds
Bad Weather Areas

Offer a LiveATC Feed
Press Inquiries

LiveATC on iPhone
LiveATC on Android

Windows Phone
Windows 8/10

LiveATC Mobile
(Mobile browser)

ATC Audio Archives
Interesting Recordings

LiveATC Forums

Home Page
Make a Donation
LiveATC Bookstore

Terms of Use
Privacy Policy

ATC/Radar Sites
U.S. ARTCC Freqs
Canadian Air Freqs


FAA Airport Status
Nat'l Airspace Status
Arrival Demand Charts

Server Software By:

Please make a donation to help us keep growing!